createdAt,value
2022-10-06T00:01:45.444Z,4.63
2022-10-06T00:04:14.129Z,4.70
2022-10-06T00:06:41.535Z,4.43
2022-10-06T00:09:08.904Z,6.32
2022-10-06T00:11:36.235Z,4.93
2022-10-06T00:14:03.638Z,4.75
2022-10-06T00:16:30.986Z,6.50
2022-10-06T00:18:58.631Z,5.88
2022-10-06T00:21:27.340Z,6.95
2022-10-06T00:23:54.677Z,6.40
2022-10-06T00:26:22.003Z,4.15
2022-10-06T00:28:50.208Z,6.30
2022-10-06T00:31:19.461Z,5.30
2022-10-06T00:33:47.179Z,5.10
2022-10-06T00:36:14.558Z,6.65
2022-10-06T00:38:43.368Z,5.45
2022-10-06T00:41:12.415Z,5.00
2022-10-06T00:43:44.839Z,5.35
2022-10-06T00:46:14.376Z,5.15
2022-10-06T00:48:42.250Z,3.95
2022-10-06T00:51:09.779Z,4.95
2022-10-06T00:53:37.306Z,8.30
2022-10-06T00:56:06.256Z,3.83
2022-10-06T00:58:33.651Z,4.82
2022-10-06T01:01:01.033Z,7.10
2022-10-06T01:03:30.744Z,5.13
2022-10-06T01:05:59.548Z,6.97
2022-10-06T01:08:27.436Z,5.75
2022-10-06T01:10:55.014Z,5.45
2022-10-06T01:13:24.094Z,5.05
2022-10-06T01:15:53.643Z,4.40
2022-10-06T01:18:22.701Z,4.88
2022-10-06T01:20:51.898Z,5.60
2022-10-06T01:23:20.605Z,5.50
2022-10-06T01:25:48.019Z,8.23
2022-10-06T01:28:15.728Z,5.25
2022-10-06T01:30:45.942Z,4.80
2022-10-06T01:33:13.308Z,5.65
2022-10-06T01:35:40.625Z,4.80
2022-10-06T01:38:07.982Z,8.43
2022-10-06T01:40:36.662Z,4.35
2022-10-06T01:43:04.025Z,6.57
2022-10-06T01:45:31.380Z,6.22
2022-10-06T01:47:58.781Z,4.13
2022-10-06T01:50:26.243Z,4.28
2022-10-06T01:52:55.872Z,5.82
2022-10-06T01:55:23.238Z,4.80
2022-10-06T01:57:51.946Z,5.68
2022-10-06T02:00:19.526Z,3.85
2022-10-06T02:02:46.856Z,4.10
2022-10-06T02:05:15.577Z,4.60
2022-10-06T02:07:42.929Z,6.25
2022-10-06T02:10:10.532Z,5.47
2022-10-06T02:12:37.865Z,6.45
2022-10-06T02:15:07.253Z,5.35
2022-10-06T02:17:34.584Z,4.78
2022-10-06T02:20:01.949Z,7.03
2022-10-06T02:22:29.347Z,5.25
2022-10-06T02:24:56.706Z,6.70
2022-10-06T02:27:24.055Z,6.03
2022-10-06T02:29:51.393Z,6.18
2022-10-06T02:32:20.028Z,5.20
2022-10-06T02:34:47.351Z,6.93
2022-10-06T02:37:15.798Z,4.78
2022-10-06T02:39:43.185Z,5.43
2022-10-06T02:42:11.145Z,8.23
2022-10-06T02:44:38.513Z,4.88
2022-10-06T02:47:05.944Z,5.68
2022-10-06T02:49:34.655Z,4.63
2022-10-06T02:52:02.048Z,5.13
2022-10-06T02:54:29.387Z,4.57
2022-10-06T02:56:56.731Z,5.78
2022-10-06T02:59:24.089Z,6.70
2022-10-06T03:01:52.418Z,4.80
2022-10-06T03:04:20.010Z,5.63
2022-10-06T03:06:50.052Z,6.80
2022-10-06T03:09:18.683Z,5.10
2022-10-06T03:11:46.071Z,4.50
2022-10-06T03:14:15.666Z,5.20
2022-10-06T03:16:46.559Z,5.30
2022-10-06T03:19:13.942Z,6.13
2022-10-06T03:21:42.286Z,7.32
2022-10-06T03:24:11.435Z,4.95
2022-10-06T03:26:39.921Z,5.40
2022-10-06T03:29:11.309Z,5.40
2022-10-06T03:31:39.647Z,5.03
2022-10-06T03:34:08.724Z,4.55
2022-10-06T03:36:36.671Z,7.55
2022-10-06T03:39:04.751Z,5.13
2022-10-06T03:41:34.188Z,4.13
2022-10-06T03:44:01.809Z,7.45
2022-10-06T03:46:30.078Z,5.60
2022-10-06T03:48:58.107Z,5.13
2022-10-06T03:51:26.838Z,4.10
2022-10-06T03:53:54.623Z,5.07
2022-10-06T03:56:24.176Z,5.35
2022-10-06T03:58:53.743Z,5.85
2022-10-06T04:01:25.979Z,3.40
2022-10-06T04:03:54.132Z,7.72
2022-10-06T04:06:21.693Z,4.20
2022-10-06T04:08:49.997Z,4.07
2022-10-06T04:11:21.442Z,6.32
2022-10-06T04:13:49.231Z,4.03
2022-10-06T04:16:19.010Z,4.22
2022-10-06T04:18:47.498Z,3.85
2022-10-06T04:21:15.101Z,3.47
2022-10-06T04:23:42.530Z,4.65
2022-10-06T04:26:12.694Z,3.10
2022-10-06T04:28:40.889Z,3.97
2022-10-06T04:31:13.209Z,2.13
2022-10-06T04:33:42.631Z,3.08
2022-10-06T04:36:11.494Z,3.55
2022-10-06T04:38:38.843Z,2.40
2022-10-06T04:41:06.952Z,3.20
2022-10-06T04:43:34.398Z,2.30
2022-10-06T04:46:18.090Z,1.75
2022-10-06T04:48:52.167Z,1.70
2022-10-06T04:51:19.818Z,3.22
2022-10-06T04:53:47.155Z,2.60
2022-10-06T04:56:15.416Z,3.63
2022-10-06T04:58:43.816Z,5.60
2022-10-06T05:01:13.979Z,2.10
2022-10-06T05:03:41.391Z,2.15
2022-10-06T05:06:12.782Z,2.70
2022-10-06T05:08:40.639Z,2.83
2022-10-06T05:11:13.671Z,2.05
2022-10-06T05:13:44.129Z,3.20
2022-10-06T05:16:12.709Z,1.55
2022-10-06T05:18:40.227Z,4.18
2022-10-06T05:21:08.630Z,2.17
2022-10-06T05:23:38.979Z,2.53
2022-10-06T05:26:06.443Z,4.22
2022-10-06T05:28:34.613Z,1.65
2022-10-06T05:31:05.897Z,2.97
2022-10-06T05:33:34.287Z,2.40
2022-10-06T05:36:02.557Z,1.52
2022-10-06T05:38:30.690Z,1.85
2022-10-06T05:41:02.888Z,2.33
2022-10-06T05:43:30.244Z,2.97
2022-10-06T05:45:58.560Z,2.58
2022-10-06T05:48:26.379Z,1.05
2022-10-06T05:50:58.869Z,3.17
2022-10-06T05:53:26.228Z,1.73
2022-10-06T05:55:53.572Z,1.95
2022-10-06T05:58:22.808Z,3.20
2022-10-06T06:00:50.183Z,1.65
2022-10-06T06:03:17.540Z,1.75
2022-10-06T06:05:45.791Z,2.95
2022-10-06T06:08:13.177Z,2.58
2022-10-06T06:10:40.511Z,2.40
2022-10-06T06:13:07.847Z,2.30
2022-10-06T06:15:54.130Z,1.67
2022-10-06T06:18:21.574Z,3.95
2022-10-06T06:20:55.888Z,1.77
2022-10-06T06:23:23.278Z,3.42
2022-10-06T06:26:01.416Z,2.53
2022-10-06T06:28:30.610Z,2.90
2022-10-06T06:31:04.002Z,3.20
2022-10-06T06:33:31.698Z,1.27
2022-10-06T06:36:03.192Z,7.15
2022-10-06T06:38:31.927Z,3.22
2022-10-06T06:40:59.876Z,2.40
2022-10-06T06:43:27.595Z,1.30
2022-10-06T06:45:55.323Z,2.70
2022-10-06T06:48:23.973Z,2.50
2022-10-06T06:50:58.401Z,2.88
2022-10-06T06:53:26.069Z,2.80
2022-10-06T06:55:53.451Z,3.28
2022-10-06T06:58:21.169Z,5.15
2022-10-06T07:00:49.070Z,2.35
2022-10-06T07:03:28.243Z,2.85
2022-10-06T07:06:09.466Z,2.35
2022-10-06T07:08:37.537Z,4.22
2022-10-06T07:11:14.725Z,2.40
2022-10-06T07:13:42.435Z,2.53
2022-10-06T07:16:28.476Z,5.38
2022-10-06T07:19:13.161Z,3.63
2022-10-06T07:21:59.768Z,3.05
2022-10-06T07:24:44.539Z,4.68
2022-10-06T07:27:11.898Z,4.22
2022-10-06T07:29:39.282Z,4.38
2022-10-06T07:32:06.635Z,3.78
2022-10-06T07:34:34.350Z,2.25
2022-10-06T07:37:06.387Z,4.40
2022-10-06T07:39:34.068Z,3.35
2022-10-06T07:42:01.472Z,3.10
2022-10-06T07:44:28.891Z,4.65
2022-10-06T07:46:56.302Z,6.50
2022-10-06T07:49:23.690Z,2.83
2022-10-06T07:51:51.051Z,2.72
2022-10-06T07:54:23.996Z,6.85
2022-10-06T07:56:54.619Z,5.60
2022-10-06T07:59:22.108Z,5.07
2022-10-06T08:01:51.235Z,4.03
2022-10-06T08:04:18.690Z,3.47
2022-10-06T08:06:47.564Z,2.80
2022-10-06T08:09:14.947Z,3.65
2022-10-06T08:11:44.978Z,3.28
2022-10-06T08:14:14.974Z,3.05
2022-10-06T08:16:42.366Z,4.28
2022-10-06T08:19:11.490Z,2.53
2022-10-06T08:21:39.622Z,2.67
2022-10-06T08:24:07.179Z,2.67
2022-10-06T08:26:34.548Z,3.38
2022-10-06T08:29:03.847Z,4.70
2022-10-06T08:31:31.924Z,4.95
2022-10-06T08:33:59.549Z,3.08
2022-10-06T08:36:31.419Z,5.20
2022-10-06T08:38:59.598Z,5.13
2022-10-06T08:41:27.736Z,4.10
2022-10-06T08:43:59.130Z,3.88
2022-10-06T08:46:31.196Z,5.68
2022-10-06T08:48:59.029Z,6.15
2022-10-06T08:51:31.129Z,4.25
2022-10-06T08:54:01.875Z,7.55
2022-10-06T08:58:58.336Z,5.25
2022-10-06T09:01:26.497Z,4.70
2022-10-06T09:03:57.168Z,4.75
2022-10-06T09:06:34.202Z,6.15
2022-10-06T09:09:04.497Z,2.80
2022-10-06T09:11:45.745Z,5.57
2022-10-06T09:14:16.238Z,4.97
2022-10-06T09:16:45.678Z,6.90
2022-10-06T09:19:17.749Z,5.45
2022-10-06T09:21:47.147Z,6.70
2022-10-06T09:24:15.239Z,5.50
2022-10-06T09:26:45.200Z,2.92
2022-10-06T09:29:12.948Z,4.97
2022-10-06T09:31:42.124Z,3.55
2022-10-06T09:34:21.638Z,5.82
2022-10-06T09:37:02.006Z,4.55
2022-10-06T09:39:33.257Z,4.45
2022-10-06T09:42:04.773Z,6.95
2022-10-06T09:44:38.244Z,6.15
2022-10-06T09:47:23.498Z,5.75
2022-10-06T09:50:04.419Z,4.78
2022-10-06T09:52:31.808Z,4.00
2022-10-06T09:55:07.014Z,5.80
2022-10-06T09:57:34.655Z,4.18
2022-10-06T10:00:02.514Z,5.40
2022-10-06T10:02:36.758Z,6.63
2022-10-06T10:05:07.544Z,5.40
2022-10-06T10:07:36.140Z,5.55
2022-10-06T10:10:20.291Z,4.55
2022-10-06T10:12:51.278Z,4.28
2022-10-06T10:15:26.271Z,5.55
2022-10-06T10:17:55.358Z,4.32
2022-10-06T10:20:29.041Z,6.35
2022-10-06T10:22:57.203Z,4.78
2022-10-06T10:25:35.440Z,6.55
2022-10-06T10:28:07.571Z,3.08
2022-10-06T10:30:39.189Z,4.60
2022-10-06T10:33:11.100Z,4.18
2022-10-06T10:35:41.832Z,6.30
2022-10-06T10:38:14.886Z,4.65
2022-10-06T10:40:45.658Z,2.83
2022-10-06T10:43:19.397Z,4.63
2022-10-06T10:45:48.199Z,3.45
2022-10-06T10:48:17.764Z,6.28
2022-10-06T10:50:51.048Z,5.65
2022-10-06T10:53:21.246Z,8.77
2022-10-06T10:55:50.052Z,3.58
2022-10-06T10:58:20.101Z,4.30
2022-10-06T11:00:49.684Z,4.47
2022-10-06T11:03:17.090Z,4.13
2022-10-06T11:05:56.143Z,2.65
2022-10-06T11:08:28.735Z,4.75
2022-10-06T11:10:57.965Z,4.03
2022-10-06T11:13:29.282Z,5.35
2022-10-06T11:16:11.983Z,3.40
2022-10-06T11:18:47.007Z,4.22
2022-10-06T11:21:18.358Z,3.45
2022-10-06T11:23:53.329Z,8.13
2022-10-06T11:26:27.112Z,5.43
2022-10-06T11:28:59.576Z,5.82
2022-10-06T11:31:33.343Z,5.22
2022-10-06T11:34:01.346Z,9.50
2022-10-06T11:36:35.573Z,5.57
2022-10-06T11:39:08.412Z,3.78
2022-10-06T11:41:39.439Z,4.55
2022-10-06T11:44:13.589Z,4.68
2022-10-06T11:46:45.280Z,4.72
2022-10-06T11:49:32.050Z,5.25
2022-10-06T11:52:22.800Z,5.32
2022-10-06T11:54:52.886Z,5.38
2022-10-06T11:57:32.335Z,3.63
2022-10-06T12:00:14.602Z,6.03
2022-10-06T12:02:42.655Z,5.90
2022-10-06T12:05:55.366Z,6.03
2022-10-06T12:08:16.693Z,4.35
2022-10-06T12:10:50.847Z,5.47
2022-10-06T12:14:12.067Z,3.83
2022-10-06T12:19:18.635Z,6.65
2022-10-06T12:21:50.758Z,6.65
2022-10-06T12:24:26.159Z,6.25
2022-10-06T12:27:00.310Z,5.03
2022-10-06T12:29:39.006Z,9.98
2022-10-06T12:32:14.304Z,4.40
2022-10-06T12:34:42.814Z,6.85
2022-10-06T12:37:34.648Z,5.43
2022-10-06T12:40:20.656Z,5.72
2022-10-06T12:42:49.429Z,5.15
2022-10-06T12:45:17.531Z,7.68
2022-10-06T12:47:46.593Z,4.68
2022-10-06T12:50:16.289Z,7.15
2022-10-06T12:52:47.925Z,7.45
2022-10-06T12:55:33.126Z,6.88
2022-10-06T12:58:02.192Z,6.95
2022-10-06T13:00:34.566Z,4.68
2022-10-06T13:03:03.233Z,2.58
2022-10-06T13:05:30.927Z,4.28
2022-10-06T13:07:59.158Z,6.22
2022-10-06T13:10:29.148Z,6.82
2022-10-06T13:12:58.023Z,5.50
2022-10-06T13:15:29.037Z,5.32
2022-10-06T13:17:57.866Z,7.10
2022-10-06T13:20:33.089Z,6.47
2022-10-06T13:23:01.322Z,5.15
2022-10-06T13:25:33.411Z,4.13
2022-10-06T13:28:02.195Z,3.13
2022-10-06T13:30:35.002Z,3.30
2022-10-06T13:33:05.146Z,5.05
2022-10-06T13:35:32.580Z,3.92
2022-10-06T13:38:02.545Z,7.63
2022-10-06T13:40:44.247Z,4.85
2022-10-06T13:43:16.414Z,4.05
2022-10-06T13:45:45.723Z,5.28
2022-10-06T13:48:16.586Z,5.10
2022-10-06T13:50:47.639Z,4.35
2022-10-06T13:53:26.430Z,3.58
2022-10-06T13:55:53.801Z,6.97
2022-10-06T13:58:23.730Z,7.60
2022-10-06T14:00:55.860Z,3.85
2022-10-06T14:03:24.663Z,3.92
2022-10-06T14:05:52.778Z,8.02
2022-10-06T14:08:23.635Z,3.13
2022-10-06T14:10:52.654Z,4.65
2022-10-06T14:13:21.349Z,5.55
2022-10-06T14:15:50.151Z,5.97
2022-10-06T14:18:23.566Z,3.38
2022-10-06T14:20:51.505Z,4.75
2022-10-06T14:23:49.115Z,5.70
2022-10-06T14:26:17.291Z,6.30
2022-10-06T14:28:48.943Z,6.00
2022-10-06T14:31:16.398Z,4.20
2022-10-06T14:33:46.411Z,6.70
2022-10-06T14:36:17.763Z,4.03
2022-10-06T14:38:47.057Z,5.03
2022-10-06T14:41:18.883Z,6.68
2022-10-06T14:43:47.325Z,6.18
2022-10-06T14:46:15.521Z,7.65
2022-10-06T14:48:42.943Z,6.90
2022-10-06T14:51:11.659Z,7.20
2022-10-06T14:53:40.279Z,5.43
2022-10-06T14:56:09.012Z,5.45
2022-10-06T14:58:42.108Z,4.47
2022-10-06T15:01:12.243Z,5.63
2022-10-06T15:06:25.384Z,6.25
2022-10-06T15:08:54.487Z,3.60
2022-10-06T15:11:22.758Z,3.30
2022-10-06T15:13:51.023Z,6.47
2022-10-06T15:16:18.870Z,4.70
2022-10-06T15:18:46.308Z,6.00
2022-10-06T15:21:13.706Z,4.80
2022-10-06T15:23:41.040Z,5.00
2022-10-06T15:26:28.292Z,5.95
2022-10-06T15:29:01.862Z,4.72
2022-10-06T15:31:30.078Z,5.75
2022-10-06T15:33:57.478Z,5.43
2022-10-06T15:36:25.564Z,3.67
2022-10-06T15:38:52.967Z,4.35
2022-10-06T15:41:21.932Z,7.30
2022-10-06T15:43:58.348Z,9.25
2022-10-06T15:46:29.352Z,5.72
2022-10-06T15:48:58.896Z,3.25
2022-10-06T15:51:26.844Z,6.68
2022-10-06T15:53:54.260Z,6.05
2022-10-06T15:56:22.987Z,3.90
2022-10-06T15:58:50.326Z,4.47
2022-10-06T16:01:27.991Z,5.72
2022-10-06T16:03:56.670Z,5.25
2022-10-06T16:06:39.986Z,5.03
2022-10-06T16:11:36.420Z,4.65
2022-10-06T16:14:03.965Z,5.22
2022-10-06T16:16:31.436Z,5.85
2022-10-06T16:18:58.835Z,6.47
2022-10-06T16:21:26.360Z,7.60
2022-10-06T16:23:54.215Z,5.13
2022-10-06T16:26:23.443Z,6.00
2022-10-06T16:28:52.518Z,5.07
2022-10-06T16:31:20.274Z,5.45
2022-10-06T16:33:47.728Z,7.40
2022-10-06T16:36:16.164Z,10.07
2022-10-06T16:38:43.839Z,4.80
2022-10-06T16:41:11.552Z,7.20
2022-10-06T16:43:40.006Z,7.65
2022-10-06T16:46:09.480Z,7.50
2022-10-06T16:48:38.455Z,5.60
2022-10-06T16:51:06.331Z,5.50
2022-10-06T16:53:37.100Z,7.90
2022-10-06T16:56:05.354Z,12.00
2022-10-06T16:58:36.107Z,8.23
2022-10-06T17:01:03.547Z,7.28
2022-10-06T17:03:32.424Z,7.60
2022-10-06T17:06:03.574Z,4.88
2022-10-06T17:08:30.954Z,6.93
2022-10-06T17:11:06.671Z,4.10
2022-10-06T17:13:34.386Z,6.57
2022-10-06T17:16:03.471Z,8.10
2022-10-06T17:18:32.422Z,5.18
2022-10-06T17:21:00.640Z,7.22
2022-10-06T17:23:28.669Z,7.50
2022-10-06T17:26:07.458Z,7.15
2022-10-06T17:28:35.280Z,9.60
2022-10-06T17:31:03.120Z,8.35
2022-10-06T17:33:34.010Z,9.48
2022-10-06T17:36:06.060Z,8.63
2022-10-06T17:38:33.751Z,8.77
2022-10-06T17:41:06.664Z,10.15
2022-10-06T17:43:37.698Z,8.18
2022-10-06T17:46:05.681Z,7.72
2022-10-06T17:48:34.456Z,6.47
2022-10-06T17:51:01.998Z,5.32
2022-10-06T17:53:29.339Z,5.32
2022-10-06T17:55:56.696Z,14.45
2022-10-06T17:58:24.078Z,7.32
2022-10-06T18:00:51.638Z,9.73
2022-10-06T18:03:19.483Z,6.65
2022-10-06T18:05:58.773Z,6.13
2022-10-06T18:08:27.397Z,7.57
2022-10-06T18:11:12.153Z,6.28
2022-10-06T18:13:39.498Z,9.50
2022-10-06T18:16:13.544Z,8.63
2022-10-06T18:18:43.684Z,7.63
2022-10-06T18:21:12.389Z,6.85
2022-10-06T18:23:42.693Z,8.35
2022-10-06T18:26:11.461Z,8.45
2022-10-06T18:28:39.434Z,9.48
2022-10-06T18:31:07.216Z,8.30
2022-10-06T18:36:24.183Z,8.02
2022-10-06T18:38:55.006Z,6.15
2022-10-06T18:41:23.965Z,8.23
2022-10-06T18:43:51.740Z,10.00
2022-10-06T18:46:36.851Z,8.57
2022-10-06T18:49:08.710Z,8.18
2022-10-06T18:51:38.409Z,13.63
2022-10-06T18:54:06.875Z,10.73
2022-10-06T18:56:35.123Z,12.82
2022-10-06T18:59:02.936Z,10.30
2022-10-06T19:01:31.551Z,13.55
2022-10-06T19:04:01.129Z,10.98
2022-10-06T19:06:29.638Z,9.02
2022-10-06T19:09:00.701Z,11.75
2022-10-06T19:11:48.382Z,9.75
2022-10-06T19:14:17.264Z,11.77
2022-10-06T19:16:45.041Z,11.68
2022-10-06T19:19:13.386Z,8.52
2022-10-06T19:21:42.280Z,8.63
2022-10-06T19:24:12.401Z,13.70
2022-10-06T19:26:45.154Z,8.55
2022-10-06T19:29:13.980Z,10.27
2022-10-06T19:31:42.690Z,10.98
2022-10-06T19:34:11.026Z,8.32
2022-10-06T19:36:39.092Z,8.18
2022-10-06T19:39:06.959Z,6.60
2022-10-06T19:41:53.342Z,9.60
2022-10-06T19:44:20.721Z,12.82
2022-10-06T19:46:48.729Z,9.75
2022-10-06T19:49:17.028Z,11.98
2022-10-06T19:51:44.760Z,11.85
2022-10-06T19:54:13.148Z,8.38
2022-10-06T19:56:42.043Z,8.75
2022-10-06T19:59:13.520Z,6.45
2022-10-06T20:01:42.164Z,11.85
2022-10-06T20:04:10.039Z,9.25
2022-10-06T20:06:39.730Z,7.13
2022-10-06T20:09:08.840Z,8.35
2022-10-06T20:11:36.244Z,11.70
2022-10-06T20:14:05.065Z,6.43
2022-10-06T20:16:33.258Z,9.75
2022-10-06T20:19:00.763Z,12.77
2022-10-06T20:21:30.823Z,12.20
2022-10-06T20:23:59.454Z,17.30
2022-10-06T20:26:30.934Z,13.38
2022-10-06T20:28:58.998Z,12.82
2022-10-06T20:31:28.682Z,8.32
2022-10-06T20:33:57.978Z,7.78
2022-10-06T20:36:25.411Z,10.20
2022-10-06T20:39:24.994Z,10.05
2022-10-06T20:41:53.189Z,12.07
2022-10-06T20:44:20.641Z,6.85
2022-10-06T20:46:49.404Z,8.35
2022-10-06T20:49:17.651Z,10.02
2022-10-06T20:51:46.795Z,9.15
2022-10-06T20:54:16.029Z,8.32
2022-10-06T20:56:43.695Z,13.82
2022-10-06T20:59:12.343Z,10.52
2022-10-06T21:01:40.250Z,13.02
2022-10-06T21:04:09.479Z,9.00
2022-10-06T21:06:38.719Z,8.00
2022-10-06T21:09:06.155Z,10.02
2022-10-06T21:11:34.118Z,10.40
2022-10-06T21:14:02.030Z,11.68
2022-10-06T21:16:32.081Z,8.45
2022-10-06T21:19:00.326Z,10.82
2022-10-06T21:21:29.199Z,10.50
2022-10-06T21:23:56.559Z,10.95
2022-10-06T21:26:25.865Z,6.93
2022-10-06T21:28:53.335Z,10.38
2022-10-06T21:31:21.512Z,8.45
2022-10-06T21:33:50.267Z,6.30
2022-10-06T21:36:18.711Z,6.30
2022-10-06T21:38:48.286Z,13.45
2022-10-06T21:41:31.766Z,8.07
2022-10-06T21:43:59.813Z,7.85
2022-10-06T21:46:29.160Z,9.93
2022-10-06T21:48:57.414Z,8.45
2022-10-06T21:51:25.115Z,8.50
2022-10-06T21:53:54.338Z,9.98
2022-10-06T21:56:22.142Z,9.85
2022-10-06T21:58:51.619Z,8.77
2022-10-06T22:01:19.810Z,7.72
2022-10-06T22:03:47.237Z,10.68
2022-10-06T22:06:19.086Z,9.18
2022-10-06T22:08:47.373Z,7.60
2022-10-06T22:11:23.148Z,8.95
2022-10-06T22:13:51.678Z,9.48
2022-10-06T22:16:20.334Z,8.20
2022-10-06T22:18:48.197Z,8.73
2022-10-06T22:21:17.175Z,5.70
2022-10-06T22:23:45.199Z,9.38
2022-10-06T22:26:13.526Z,8.20
2022-10-06T22:28:45.263Z,9.52
2022-10-06T22:31:13.251Z,6.95
2022-10-06T22:33:41.168Z,6.80
2022-10-06T22:36:09.229Z,7.68
2022-10-06T22:38:36.607Z,9.23
2022-10-06T22:41:04.528Z,9.55
2022-10-06T22:43:31.939Z,9.63
2022-10-06T22:46:00.867Z,7.20
2022-10-06T22:48:28.336Z,7.05
2022-10-06T22:50:55.695Z,12.10
2022-10-06T22:53:24.659Z,8.02
2022-10-06T22:55:52.507Z,7.47
2022-10-06T22:58:20.015Z,9.68
2022-10-06T23:00:47.467Z,9.52
2022-10-06T23:03:17.637Z,8.80
2022-10-06T23:05:54.197Z,7.07
2022-10-06T23:08:21.609Z,10.38
2022-10-06T23:10:49.107Z,7.82
2022-10-06T23:13:16.503Z,10.35
2022-10-06T23:15:44.019Z,8.55
2022-10-06T23:18:11.419Z,7.03
2022-10-06T23:20:40.158Z,15.85
2022-10-06T23:23:07.588Z,7.47
2022-10-06T23:25:37.163Z,7.47
2022-10-06T23:28:04.637Z,12.73
2022-10-06T23:30:32.040Z,9.18
2022-10-06T23:32:59.417Z,10.25
2022-10-06T23:35:26.824Z,8.75
2022-10-06T23:37:55.570Z,11.15
2022-10-06T23:40:22.959Z,7.43
2022-10-06T23:42:50.351Z,10.45
2022-10-06T23:45:17.751Z,9.48
2022-10-06T23:47:45.355Z,7.50
2022-10-06T23:50:13.026Z,7.95
2022-10-06T23:52:41.423Z,11.05
2022-10-06T23:55:10.298Z,10.25
2022-10-06T23:57:37.660Z,7.30
